sensor_id;sensor_type;location;lat;lon;timestamp;P1;durP1;ratioP1;P2;durP2;ratioP2
71343;SDS011;59146;43.850;25.948;2024-02-26T00:01:25;23.45;;;15.75;;
71343;SDS011;59146;43.850;25.948;2024-02-26T00:03:51;25.95;;;16.13;;
71343;SDS011;59146;43.850;25.948;2024-02-26T00:06:17;25.35;;;16.90;;
71343;SDS011;59146;43.850;25.948;2024-02-26T00:08:43;24.73;;;15.88;;
71343;SDS011;59146;43.850;25.948;2024-02-26T00:11:09;20.25;;;14.57;;
71343;SDS011;59146;43.850;25.948;2024-02-26T00:13:35;20.58;;;12.00;;
71343;SDS011;59146;43.850;25.948;2024-02-26T00:16:01;18.80;;;11.68;;
71343;SDS011;59146;43.850;25.948;2024-02-26T00:18:27;21.33;;;12.27;;
71343;SDS011;59146;43.850;25.948;2024-02-26T00:20:52;26.70;;;16.63;;
71343;SDS011;59146;43.850;25.948;2024-02-26T00:23:18;25.52;;;17.85;;
71343;SDS011;59146;43.850;25.948;2024-02-26T00:25:43;30.83;;;18.40;;
71343;SDS011;59146;43.850;25.948;2024-02-26T00:28:10;27.45;;;19.17;;
71343;SDS011;59146;43.850;25.948;2024-02-26T00:30:35;25.85;;;16.23;;
71343;SDS011;59146;43.850;25.948;2024-02-26T00:33:01;22.30;;;15.95;;
71343;SDS011;59146;43.850;25.948;2024-02-26T00:35:27;26.83;;;17.20;;
71343;SDS011;59146;43.850;25.948;2024-02-26T00:37:52;26.35;;;16.60;;
71343;SDS011;59146;43.850;25.948;2024-02-26T00:40:18;26.55;;;16.40;;
71343;SDS011;59146;43.850;25.948;2024-02-26T00:42:44;24.65;;;16.52;;
71343;SDS011;59146;43.850;25.948;2024-02-26T00:45:14;25.55;;;14.52;;
71343;SDS011;59146;43.850;25.948;2024-02-26T00:47:41;25.40;;;14.83;;
71343;SDS011;59146;43.850;25.948;2024-02-26T00:50:07;27.15;;;16.17;;
71343;SDS011;59146;43.850;25.948;2024-02-26T00:52:33;29.65;;;16.80;;
71343;SDS011;59146;43.850;25.948;2024-02-26T00:54:59;26.05;;;16.95;;
71343;SDS011;59146;43.850;25.948;2024-02-26T00:57:25;26.52;;;15.45;;
71343;SDS011;59146;43.850;25.948;2024-02-26T00:59:50;31.17;;;16.63;;
71343;SDS011;59146;43.850;25.948;2024-02-26T01:02:16;24.20;;;16.73;;
71343;SDS011;59146;43.850;25.948;2024-02-26T01:04:41;29.40;;;16.75;;
71343;SDS011;59146;43.850;25.948;2024-02-26T01:07:06;32.85;;;16.73;;
71343;SDS011;59146;43.850;25.948;2024-02-26T01:09:32;30.67;;;17.58;;
71343;SDS011;59146;43.850;25.948;2024-02-26T01:11:58;27.02;;;16.33;;
71343;SDS011;59146;43.850;25.948;2024-02-26T01:14:23;27.60;;;18.33;;
71343;SDS011;59146;43.850;25.948;2024-02-26T01:16:49;27.20;;;17.00;;
71343;SDS011;59146;43.850;25.948;2024-02-26T01:19:14;24.27;;;15.40;;
71343;SDS011;59146;43.850;25.948;2024-02-26T01:21:40;23.58;;;15.77;;
71343;SDS011;59146;43.850;25.948;2024-02-26T01:24:06;25.95;;;15.13;;
71343;SDS011;59146;43.850;25.948;2024-02-26T01:26:32;28.88;;;16.30;;
71343;SDS011;59146;43.850;25.948;2024-02-26T01:28:57;23.65;;;15.15;;
71343;SDS011;59146;43.850;25.948;2024-02-26T01:31:23;33.00;;;17.98;;
71343;SDS011;59146;43.850;25.948;2024-02-26T01:33:48;36.53;;;18.67;;
71343;SDS011;59146;43.850;25.948;2024-02-26T01:36:14;25.90;;;14.70;;
71343;SDS011;59146;43.850;25.948;2024-02-26T01:38:39;26.65;;;15.95;;
71343;SDS011;59146;43.850;25.948;2024-02-26T01:41:04;24.15;;;16.08;;
71343;SDS011;59146;43.850;25.948;2024-02-26T01:43:30;29.15;;;15.65;;
71343;SDS011;59146;43.850;25.948;2024-02-26T01:45:55;26.08;;;15.68;;
71343;SDS011;59146;43.850;25.948;2024-02-26T01:48:21;31.10;;;16.58;;
71343;SDS011;59146;43.850;25.948;2024-02-26T01:50:46;28.00;;;16.48;;
71343;SDS011;59146;43.850;25.948;2024-02-26T01:53:12;29.80;;;16.00;;
71343;SDS011;59146;43.850;25.948;2024-02-26T01:55:38;22.42;;;14.73;;
71343;SDS011;59146;43.850;25.948;2024-02-26T01:58:04;24.75;;;13.77;;
71343;SDS011;59146;43.850;25.948;2024-02-26T02:00:30;22.45;;;15.27;;
71343;SDS011;59146;43.850;25.948;2024-02-26T02:02:56;25.50;;;16.10;;
71343;SDS011;59146;43.850;25.948;2024-02-26T02:05:22;28.50;;;16.27;;
71343;SDS011;59146;43.850;25.948;2024-02-26T02:07:47;24.98;;;15.55;;
71343;SDS011;59146;43.850;25.948;2024-02-26T02:10:14;23.02;;;16.23;;
71343;SDS011;59146;43.850;25.948;2024-02-26T02:12:40;23.48;;;16.10;;
71343;SDS011;59146;43.850;25.948;2024-02-26T02:15:06;25.85;;;16.13;;
71343;SDS011;59146;43.850;25.948;2024-02-26T02:17:32;29.52;;;16.92;;
71343;SDS011;59146;43.850;25.948;2024-02-26T02:19:57;25.85;;;16.27;;
71343;SDS011;59146;43.850;25.948;2024-02-26T02:22:23;27.75;;;16.55;;
71343;SDS011;59146;43.850;25.948;2024-02-26T02:24:52;30.27;;;18.33;;
71343;SDS011;59146;43.850;25.948;2024-02-26T02:27:17;23.88;;;16.08;;
71343;SDS011;59146;43.850;25.948;2024-02-26T02:29:44;29.55;;;17.10;;
71343;SDS011;59146;43.850;25.948;2024-02-26T02:32:09;31.60;;;17.38;;
71343;SDS011;59146;43.850;25.948;2024-02-26T02:34:35;28.73;;;17.00;;
71343;SDS011;59146;43.850;25.948;2024-02-26T02:37:01;26.75;;;17.27;;
71343;SDS011;59146;43.850;25.948;2024-02-26T02:39:26;29.20;;;16.77;;
71343;SDS011;59146;43.850;25.948;2024-02-26T02:41:52;26.92;;;15.82;;
71343;SDS011;59146;43.850;25.948;2024-02-26T02:44:17;24.42;;;15.57;;
71343;SDS011;59146;43.850;25.948;2024-02-26T02:46:43;23.90;;;16.05;;
71343;SDS011;59146;43.850;25.948;2024-02-26T02:49:08;26.70;;;15.93;;
71343;SDS011;59146;43.850;25.948;2024-02-26T02:51:35;27.58;;;16.90;;
71343;SDS011;59146;43.850;25.948;2024-02-26T02:54:00;30.02;;;17.13;;
71343;SDS011;59146;43.850;25.948;2024-02-26T02:56:26;28.73;;;17.10;;
71343;SDS011;59146;43.850;25.948;2024-02-26T02:58:52;26.33;;;17.20;;
71343;SDS011;59146;43.850;25.948;2024-02-26T03:01:17;26.38;;;17.98;;
71343;SDS011;59146;43.850;25.948;2024-02-26T03:03:42;24.35;;;15.90;;
71343;SDS011;59146;43.850;25.948;2024-02-26T03:06:08;28.67;;;16.48;;
71343;SDS011;59146;43.850;25.948;2024-02-26T03:08:33;27.08;;;17.13;;
71343;SDS011;59146;43.850;25.948;2024-02-26T03:11:02;32.80;;;18.70;;
71343;SDS011;59146;43.850;25.948;2024-02-26T03:13:28;25.98;;;16.60;;
71343;SDS011;59146;43.850;25.948;2024-02-26T03:15:54;28.20;;;17.88;;
71343;SDS011;59146;43.850;25.948;2024-02-26T03:18:19;27.98;;;17.77;;
71343;SDS011;59146;43.850;25.948;2024-02-26T03:20:45;27.90;;;18.02;;
71343;SDS011;59146;43.850;25.948;2024-02-26T03:23:11;33.03;;;18.98;;
71343;SDS011;59146;43.850;25.948;2024-02-26T03:25:39;27.35;;;17.02;;
71343;SDS011;59146;43.850;25.948;2024-02-26T03:28:06;26.80;;;18.15;;
71343;SDS011;59146;43.850;25.948;2024-02-26T03:30:31;30.77;;;19.40;;
71343;SDS011;59146;43.850;25.948;2024-02-26T03:32:57;25.48;;;17.13;;
71343;SDS011;59146;43.850;25.948;2024-02-26T03:35:22;31.92;;;17.67;;
71343;SDS011;59146;43.850;25.948;2024-02-26T03:37:47;26.98;;;17.55;;
71343;SDS011;59146;43.850;25.948;2024-02-26T03:40:15;29.00;;;17.77;;
71343;SDS011;59146;43.850;25.948;2024-02-26T03:42:40;24.27;;;15.93;;
71343;SDS011;59146;43.850;25.948;2024-02-26T03:45:06;28.83;;;17.60;;
71343;SDS011;59146;43.850;25.948;2024-02-26T03:47:31;29.85;;;17.58;;
71343;SDS011;59146;43.850;25.948;2024-02-26T03:49:57;28.40;;;17.35;;
71343;SDS011;59146;43.850;25.948;2024-02-26T03:52:24;28.17;;;17.10;;
71343;SDS011;59146;43.850;25.948;2024-02-26T03:54:49;30.25;;;18.33;;
71343;SDS011;59146;43.850;25.948;2024-02-26T03:57:15;31.58;;;18.67;;
71343;SDS011;59146;43.850;25.948;2024-02-26T03:59:40;28.13;;;17.75;;
71343;SDS011;59146;43.850;25.948;2024-02-26T04:02:06;32.72;;;18.02;;
71343;SDS011;59146;43.850;25.948;2024-02-26T04:04:33;30.38;;;17.27;;
71343;SDS011;59146;43.850;25.948;2024-02-26T04:06:59;33.00;;;17.45;;
71343;SDS011;59146;43.850;25.948;2024-02-26T04:09:25;27.83;;;18.40;;
71343;SDS011;59146;43.850;25.948;2024-02-26T04:11:50;31.55;;;16.90;;
71343;SDS011;59146;43.850;25.948;2024-02-26T04:14:16;28.15;;;17.55;;
71343;SDS011;59146;43.850;25.948;2024-02-26T04:16:41;26.45;;;18.05;;
71343;SDS011;59146;43.850;25.948;2024-02-26T04:19:07;27.45;;;16.33;;
71343;SDS011;59146;43.850;25.948;2024-02-26T04:21:32;28.52;;;16.83;;
71343;SDS011;59146;43.850;25.948;2024-02-26T04:23:58;29.15;;;16.40;;
71343;SDS011;59146;43.850;25.948;2024-02-26T04:26:26;30.85;;;17.23;;
71343;SDS011;59146;43.850;25.948;2024-02-26T04:28:52;27.05;;;15.95;;
71343;SDS011;59146;43.850;25.948;2024-02-26T04:31:18;27.20;;;16.63;;
71343;SDS011;59146;43.850;25.948;2024-02-26T04:33:43;34.20;;;17.52;;
71343;SDS011;59146;43.850;25.948;2024-02-26T04:36:13;25.85;;;15.98;;
71343;SDS011;59146;43.850;25.948;2024-02-26T04:38:40;30.17;;;17.45;;
71343;SDS011;59146;43.850;25.948;2024-02-26T04:41:05;26.55;;;16.65;;
71343;SDS011;59146;43.850;25.948;2024-02-26T04:43:31;24.55;;;15.68;;
71343;SDS011;59146;43.850;25.948;2024-02-26T04:45:56;29.23;;;16.63;;
71343;SDS011;59146;43.850;25.948;2024-02-26T04:48:22;22.35;;;15.15;;
71343;SDS011;59146;43.850;25.948;2024-02-26T04:50:48;23.25;;;15.18;;
71343;SDS011;59146;43.850;25.948;2024-02-26T04:53:13;24.30;;;16.25;;
71343;SDS011;59146;43.850;25.948;2024-02-26T04:55:39;24.50;;;15.88;;
71343;SDS011;59146;43.850;25.948;2024-02-26T04:58:04;29.35;;;16.90;;
71343;SDS011;59146;43.850;25.948;2024-02-26T05:00:30;25.98;;;16.00;;
71343;SDS011;59146;43.850;25.948;2024-02-26T05:02:55;26.75;;;16.00;;
71343;SDS011;59146;43.850;25.948;2024-02-26T05:05:20;21.77;;;15.77;;
71343;SDS011;59146;43.850;25.948;2024-02-26T05:07:46;27.48;;;15.90;;
71343;SDS011;59146;43.850;25.948;2024-02-26T05:10:11;25.70;;;15.68;;
71343;SDS011;59146;43.850;25.948;2024-02-26T05:12:37;23.27;;;15.52;;
71343;SDS011;59146;43.850;25.948;2024-02-26T05:15:02;23.73;;;14.40;;
71343;SDS011;59146;43.850;25.948;2024-02-26T05:17:28;25.30;;;15.88;;
71343;SDS011;59146;43.850;25.948;2024-02-26T05:19:54;36.13;;;17.13;;
71343;SDS011;59146;43.850;25.948;2024-02-26T05:22:19;27.50;;;17.13;;
71343;SDS011;59146;43.850;25.948;2024-02-26T05:24:45;27.63;;;16.33;;
71343;SDS011;59146;43.850;25.948;2024-02-26T05:27:10;32.20;;;17.92;;
71343;SDS011;59146;43.850;25.948;2024-02-26T05:29:37;35.80;;;17.90;;
71343;SDS011;59146;43.850;25.948;2024-02-26T05:32:03;31.45;;;17.98;;
71343;SDS011;59146;43.850;25.948;2024-02-26T05:34:29;35.33;;;18.02;;
71343;SDS011;59146;43.850;25.948;2024-02-26T05:36:55;39.97;;;25.27;;
71343;SDS011;59146;43.850;25.948;2024-02-26T05:39:21;32.63;;;18.55;;
71343;SDS011;59146;43.850;25.948;2024-02-26T05:41:46;36.47;;;19.27;;
71343;SDS011;59146;43.850;25.948;2024-02-26T05:44:12;31.15;;;18.77;;
71343;SDS011;59146;43.850;25.948;2024-02-26T05:46:37;34.72;;;19.02;;
71343;SDS011;59146;43.850;25.948;2024-02-26T05:49:03;39.83;;;19.80;;
71343;SDS011;59146;43.850;25.948;2024-02-26T05:51:28;37.45;;;17.55;;
71343;SDS011;59146;43.850;25.948;2024-02-26T05:53:54;26.75;;;18.05;;
71343;SDS011;59146;43.850;25.948;2024-02-26T05:56:20;49.25;;;19.38;;
71343;SDS011;59146;43.850;25.948;2024-02-26T05:58:48;33.17;;;16.63;;
71343;SDS011;59146;43.850;25.948;2024-02-26T06:01:15;37.47;;;19.33;;
71343;SDS011;59146;43.850;25.948;2024-02-26T06:03:41;29.85;;;17.45;;
71343;SDS011;59146;43.850;25.948;2024-02-26T06:06:07;28.20;;;17.55;;
71343;SDS011;59146;43.850;25.948;2024-02-26T06:08:32;27.27;;;16.95;;
71343;SDS011;59146;43.850;25.948;2024-02-26T06:10:58;31.65;;;16.58;;
71343;SDS011;59146;43.850;25.948;2024-02-26T06:13:24;27.50;;;17.23;;
71343;SDS011;59146;43.850;25.948;2024-02-26T06:15:49;25.98;;;16.33;;
71343;SDS011;59146;43.850;25.948;2024-02-26T06:18:14;27.45;;;18.25;;
71343;SDS011;59146;43.850;25.948;2024-02-26T06:20:41;34.00;;;19.70;;
71343;SDS011;59146;43.850;25.948;2024-02-26T06:23:06;33.83;;;21.20;;
71343;SDS011;59146;43.850;25.948;2024-02-26T06:25:32;37.45;;;20.58;;
71343;SDS011;59146;43.850;25.948;2024-02-26T06:27:57;35.92;;;20.45;;
71343;SDS011;59146;43.850;25.948;2024-02-26T06:30:23;36.45;;;19.88;;
71343;SDS011;59146;43.850;25.948;2024-02-26T06:32:48;31.98;;;19.92;;
71343;SDS011;59146;43.850;25.948;2024-02-26T06:35:14;41.70;;;21.38;;
71343;SDS011;59146;43.850;25.948;2024-02-26T06:37:39;33.47;;;19.15;;
71343;SDS011;59146;43.850;25.948;2024-02-26T06:40:05;33.50;;;19.27;;
71343;SDS011;59146;43.850;25.948;2024-02-26T06:42:34;29.58;;;19.67;;
71343;SDS011;59146;43.850;25.948;2024-02-26T06:44:59;42.78;;;18.38;;
71343;SDS011;59146;43.850;25.948;2024-02-26T06:47:25;29.58;;;19.05;;
71343;SDS011;59146;43.850;25.948;2024-02-26T06:49:51;33.58;;;18.55;;
71343;SDS011;59146;43.850;25.948;2024-02-26T06:52:16;33.13;;;19.48;;
71343;SDS011;59146;43.850;25.948;2024-02-26T06:54:41;28.70;;;18.50;;
71343;SDS011;59146;43.850;25.948;2024-02-26T06:57:07;32.95;;;18.58;;
71343;SDS011;59146;43.850;25.948;2024-02-26T06:59:32;36.03;;;19.08;;
71343;SDS011;59146;43.850;25.948;2024-02-26T07:01:58;40.88;;;19.70;;
71343;SDS011;59146;43.850;25.948;2024-02-26T07:04:23;32.15;;;19.35;;
71343;SDS011;59146;43.850;25.948;2024-02-26T07:06:48;33.53;;;19.35;;
71343;SDS011;59146;43.850;25.948;2024-02-26T07:09:14;35.15;;;19.48;;
71343;SDS011;59146;43.850;25.948;2024-02-26T07:11:40;37.83;;;22.23;;
71343;SDS011;59146;43.850;25.948;2024-02-26T07:14:11;32.72;;;22.33;;
71343;SDS011;59146;43.850;25.948;2024-02-26T07:16:37;29.58;;;22.15;;
71343;SDS011;59146;43.850;25.948;2024-02-26T07:19:02;33.50;;;20.58;;
71343;SDS011;59146;43.850;25.948;2024-02-26T07:21:28;48.05;;;20.60;;
71343;SDS011;59146;43.850;25.948;2024-02-26T07:23:54;36.70;;;20.45;;
71343;SDS011;59146;43.850;25.948;2024-02-26T07:26:19;28.05;;;19.65;;
71343;SDS011;59146;43.850;25.948;2024-02-26T07:28:45;37.17;;;20.88;;
71343;SDS011;59146;43.850;25.948;2024-02-26T07:31:12;39.45;;;21.70;;
71343;SDS011;59146;43.850;25.948;2024-02-26T07:33:38;39.55;;;21.80;;
71343;SDS011;59146;43.850;25.948;2024-02-26T07:36:03;35.85;;;22.05;;
71343;SDS011;59146;43.850;25.948;2024-02-26T07:38:29;42.20;;;21.85;;
71343;SDS011;59146;43.850;25.948;2024-02-26T07:40:54;38.20;;;23.52;;
71343;SDS011;59146;43.850;25.948;2024-02-26T07:43:22;38.28;;;23.45;;
71343;SDS011;59146;43.850;25.948;2024-02-26T07:45:48;43.15;;;24.65;;
71343;SDS011;59146;43.850;25.948;2024-02-26T07:48:13;38.63;;;23.35;;
71343;SDS011;59146;43.850;25.948;2024-02-26T07:50:39;34.05;;;22.02;;
71343;SDS011;59146;43.850;25.948;2024-02-26T07:53:05;40.90;;;22.13;;
71343;SDS011;59146;43.850;25.948;2024-02-26T07:55:31;39.95;;;23.88;;
71343;SDS011;59146;43.850;25.948;2024-02-26T07:57:56;36.58;;;21.52;;
71343;SDS011;59146;43.850;25.948;2024-02-26T08:00:22;44.42;;;22.15;;
71343;SDS011;59146;43.850;25.948;2024-02-26T08:02:48;38.22;;;21.85;;
71343;SDS011;59146;43.850;25.948;2024-02-26T08:05:13;33.80;;;21.10;;
71343;SDS011;59146;43.850;25.948;2024-02-26T08:07:39;47.22;;;22.02;;
71343;SDS011;59146;43.850;25.948;2024-02-26T08:10:05;42.45;;;23.00;;
71343;SDS011;59146;43.850;25.948;2024-02-26T08:12:31;41.25;;;21.10;;
71343;SDS011;59146;43.850;25.948;2024-02-26T08:14:58;45.65;;;21.92;;
71343;SDS011;59146;43.850;25.948;2024-02-26T08:17:25;40.58;;;19.95;;
71343;SDS011;59146;43.850;25.948;2024-02-26T08:19:52;54.70;;;22.00;;
71343;SDS011;59146;43.850;25.948;2024-02-26T08:22:17;44.60;;;22.10;;
71343;SDS011;59146;43.850;25.948;2024-02-26T08:24:43;37.83;;;20.13;;
71343;SDS011;59146;43.850;25.948;2024-02-26T08:27:08;35.03;;;20.10;;
71343;SDS011;59146;43.850;25.948;2024-02-26T08:29:34;48.92;;;18.60;;
71343;SDS011;59146;43.850;25.948;2024-02-26T08:32:00;27.33;;;17.77;;
71343;SDS011;59146;43.850;25.948;2024-02-26T08:34:26;47.10;;;19.13;;
71343;SDS011;59146;43.850;25.948;2024-02-26T08:36:51;36.90;;;17.52;;
71343;SDS011;59146;43.850;25.948;2024-02-26T08:39:17;39.22;;;18.05;;
71343;SDS011;59146;43.850;25.948;2024-02-26T08:41:43;38.58;;;17.65;;
71343;SDS011;59146;43.850;25.948;2024-02-26T08:44:09;36.17;;;18.27;;
71343;SDS011;59146;43.850;25.948;2024-02-26T08:46:35;38.53;;;16.52;;
71343;SDS011;59146;43.850;25.948;2024-02-26T08:49:00;39.47;;;15.93;;
71343;SDS011;59146;43.850;25.948;2024-02-26T08:51:26;45.83;;;14.80;;
71343;SDS011;59146;43.850;25.948;2024-02-26T08:53:51;29.73;;;14.68;;
71343;SDS011;59146;43.850;25.948;2024-02-26T08:56:24;31.33;;;15.40;;
71343;SDS011;59146;43.850;25.948;2024-02-26T08:58:50;42.17;;;15.68;;
71343;SDS011;59146;43.850;25.948;2024-02-26T09:01:21;41.58;;;15.98;;
71343;SDS011;59146;43.850;25.948;2024-02-26T09:03:48;25.77;;;15.00;;
71343;SDS011;59146;43.850;25.948;2024-02-26T09:06:16;31.48;;;14.60;;
71343;SDS011;59146;43.850;25.948;2024-02-26T09:08:42;27.13;;;13.73;;
71343;SDS011;59146;43.850;25.948;2024-02-26T09:11:08;25.92;;;13.68;;
71343;SDS011;59146;43.850;25.948;2024-02-26T09:13:35;27.75;;;15.32;;
71343;SDS011;59146;43.850;25.948;2024-02-26T09:16:01;32.13;;;14.30;;
71343;SDS011;59146;43.850;25.948;2024-02-26T09:18:26;24.85;;;13.60;;
71343;SDS011;59146;43.850;25.948;2024-02-26T09:20:54;19.85;;;13.35;;
71343;SDS011;59146;43.850;25.948;2024-02-26T09:23:19;26.73;;;15.05;;
71343;SDS011;59146;43.850;25.948;2024-02-26T09:25:45;37.88;;;15.60;;
71343;SDS011;59146;43.850;25.948;2024-02-26T09:28:11;31.95;;;14.73;;
71343;SDS011;59146;43.850;25.948;2024-02-26T09:30:36;28.45;;;14.15;;
71343;SDS011;59146;43.850;25.948;2024-02-26T09:33:03;28.42;;;13.90;;
71343;SDS011;59146;43.850;25.948;2024-02-26T09:35:31;27.00;;;13.73;;
71343;SDS011;59146;43.850;25.948;2024-02-26T09:37:57;27.45;;;13.65;;
71343;SDS011;59146;43.850;25.948;2024-02-26T09:40:22;25.88;;;13.70;;
71343;SDS011;59146;43.850;25.948;2024-02-26T09:42:48;30.35;;;14.10;;
71343;SDS011;59146;43.850;25.948;2024-02-26T09:45:24;25.95;;;14.23;;
71343;SDS011;59146;43.850;25.948;2024-02-26T09:47:52;27.88;;;14.95;;
71343;SDS011;59146;43.850;25.948;2024-02-26T09:50:20;25.40;;;13.25;;
71343;SDS011;59146;43.850;25.948;2024-02-26T09:52:47;23.35;;;14.10;;
71343;SDS011;59146;43.850;25.948;2024-02-26T09:55:14;19.88;;;13.75;;
71343;SDS011;59146;43.850;25.948;2024-02-26T09:57:42;21.20;;;13.35;;
71343;SDS011;59146;43.850;25.948;2024-02-26T10:02:46;25.45;;;13.25;;
71343;SDS011;59146;43.850;25.948;2024-02-26T10:05:14;27.90;;;14.35;;
71343;SDS011;59146;43.850;25.948;2024-02-26T10:07:43;25.02;;;13.82;;
71343;SDS011;59146;43.850;25.948;2024-02-26T10:10:10;18.25;;;12.25;;
71343;SDS011;59146;43.850;25.948;2024-02-26T10:12:36;23.77;;;14.45;;
71343;SDS011;59146;43.850;25.948;2024-02-26T10:15:01;19.38;;;13.68;;
71343;SDS011;59146;43.850;25.948;2024-02-26T10:17:27;19.50;;;12.52;;
71343;SDS011;59146;43.850;25.948;2024-02-26T10:19:53;31.40;;;13.18;;
71343;SDS011;59146;43.850;25.948;2024-02-26T10:22:21;18.17;;;12.93;;
71343;SDS011;59146;43.850;25.948;2024-02-26T10:24:47;27.48;;;14.35;;
71343;SDS011;59146;43.850;25.948;2024-02-26T10:27:13;18.40;;;13.45;;
71343;SDS011;59146;43.850;25.948;2024-02-26T10:29:40;19.83;;;14.18;;
71343;SDS011;59146;43.850;25.948;2024-02-26T10:32:08;22.80;;;14.63;;
71343;SDS011;59146;43.850;25.948;2024-02-26T10:34:34;26.80;;;14.50;;
71343;SDS011;59146;43.850;25.948;2024-02-26T10:37:02;25.30;;;14.45;;
71343;SDS011;59146;43.850;25.948;2024-02-26T10:39:29;30.05;;;15.80;;
71343;SDS011;59146;43.850;25.948;2024-02-26T10:41:55;25.48;;;15.13;;
71343;SDS011;59146;43.850;25.948;2024-02-26T10:44:21;22.23;;;14.63;;
71343;SDS011;59146;43.850;25.948;2024-02-26T10:46:47;26.33;;;14.75;;
71343;SDS011;59146;43.850;25.948;2024-02-26T10:49:16;22.73;;;15.30;;
71343;SDS011;59146;43.850;25.948;2024-02-26T10:51:44;27.27;;;15.52;;
71343;SDS011;59146;43.850;25.948;2024-02-26T10:54:12;23.10;;;14.25;;
71343;SDS011;59146;43.850;25.948;2024-02-26T10:56:41;20.42;;;13.98;;
71343;SDS011;59146;43.850;25.948;2024-02-26T10:59:09;19.33;;;14.48;;
71343;SDS011;59146;43.850;25.948;2024-02-26T11:01:35;24.40;;;15.48;;
71343;SDS011;59146;43.850;25.948;2024-02-26T11:04:03;28.05;;;15.13;;
71343;SDS011;59146;43.850;25.948;2024-02-26T11:06:30;27.27;;;16.38;;
71343;SDS011;59146;43.850;25.948;2024-02-26T11:08:59;24.77;;;16.15;;
71343;SDS011;59146;43.850;25.948;2024-02-26T11:11:36;19.13;;;14.65;;
71343;SDS011;59146;43.850;25.948;2024-02-26T11:14:05;28.15;;;15.80;;
71343;SDS011;59146;43.850;25.948;2024-02-26T11:16:34;21.48;;;15.00;;
71343;SDS011;59146;43.850;25.948;2024-02-26T11:19:01;26.92;;;15.15;;
71343;SDS011;59146;43.850;25.948;2024-02-26T11:21:28;27.40;;;15.50;;
71343;SDS011;59146;43.850;25.948;2024-02-26T11:24:13;27.02;;;15.52;;
71343;SDS011;59146;43.850;25.948;2024-02-26T11:26:45;27.85;;;14.68;;
71343;SDS011;59146;43.850;25.948;2024-02-26T11:29:16;26.90;;;14.40;;
71343;SDS011;59146;43.850;25.948;2024-02-26T11:31:46;24.90;;;14.20;;
71343;SDS011;59146;43.850;25.948;2024-02-26T11:34:13;20.58;;;13.32;;
71343;SDS011;59146;43.850;25.948;2024-02-26T11:36:38;27.70;;;13.77;;
71343;SDS011;59146;43.850;25.948;2024-02-26T11:39:04;23.73;;;14.50;;
71343;SDS011;59146;43.850;25.948;2024-02-26T11:41:30;23.85;;;13.95;;
71343;SDS011;59146;43.850;25.948;2024-02-26T11:44:02;23.10;;;13.52;;
71343;SDS011;59146;43.850;25.948;2024-02-26T11:49:00;20.02;;;12.98;;
71343;SDS011;59146;43.850;25.948;2024-02-26T11:51:28;23.13;;;13.70;;
71343;SDS011;59146;43.850;25.948;2024-02-26T11:53:58;28.45;;;13.77;;
71343;SDS011;59146;43.850;25.948;2024-02-26T11:56:24;24.30;;;13.38;;
71343;SDS011;59146;43.850;25.948;2024-02-26T11:58:58;24.48;;;12.43;;
71343;SDS011;59146;43.850;25.948;2024-02-26T12:04:05;22.67;;;13.48;;
71343;SDS011;59146;43.850;25.948;2024-02-26T12:06:51;25.15;;;13.35;;
71343;SDS011;59146;43.850;25.948;2024-02-26T12:09:37;27.20;;;14.27;;
71343;SDS011;59146;43.850;25.948;2024-02-26T12:12:05;33.28;;;14.63;;
71343;SDS011;59146;43.850;25.948;2024-02-26T12:14:32;27.42;;;13.48;;
71343;SDS011;59146;43.850;25.948;2024-02-26T12:16:59;29.25;;;15.38;;
71343;SDS011;59146;43.850;25.948;2024-02-26T12:19:25;26.20;;;13.70;;
71343;SDS011;59146;43.850;25.948;2024-02-26T12:21:52;27.35;;;13.07;;
71343;SDS011;59146;43.850;25.948;2024-02-26T12:24:20;20.30;;;11.98;;
71343;SDS011;59146;43.850;25.948;2024-02-26T12:26:46;28.65;;;12.65;;
71343;SDS011;59146;43.850;25.948;2024-02-26T12:29:11;26.98;;;12.48;;
71343;SDS011;59146;43.850;25.948;2024-02-26T12:31:38;20.65;;;12.07;;
71343;SDS011;59146;43.850;25.948;2024-02-26T12:34:05;19.08;;;12.43;;
71343;SDS011;59146;43.850;25.948;2024-02-26T12:36:33;24.88;;;13.10;;
71343;SDS011;59146;43.850;25.948;2024-02-26T12:39:03;19.25;;;12.15;;
71343;SDS011;59146;43.850;25.948;2024-02-26T12:41:31;19.27;;;13.30;;
71343;SDS011;59146;43.850;25.948;2024-02-26T12:43:57;19.23;;;13.32;;
71343;SDS011;59146;43.850;25.948;2024-02-26T12:46:24;20.42;;;12.85;;
71343;SDS011;59146;43.850;25.948;2024-02-26T12:48:49;22.60;;;13.23;;
71343;SDS011;59146;43.850;25.948;2024-02-26T12:51:15;21.65;;;12.70;;
71343;SDS011;59146;43.850;25.948;2024-02-26T12:53:43;20.17;;;12.50;;
71343;SDS011;59146;43.850;25.948;2024-02-26T12:56:09;21.85;;;12.18;;
71343;SDS011;59146;43.850;25.948;2024-02-26T12:58:38;19.67;;;12.15;;
71343;SDS011;59146;43.850;25.948;2024-02-26T13:01:05;22.58;;;12.35;;
71343;SDS011;59146;43.850;25.948;2024-02-26T13:03:34;26.75;;;11.73;;
71343;SDS011;59146;43.850;25.948;2024-02-26T13:06:02;22.08;;;11.07;;
71343;SDS011;59146;43.850;25.948;2024-02-26T13:08:28;24.98;;;10.68;;
71343;SDS011;59146;43.850;25.948;2024-02-26T13:10:53;18.52;;;10.48;;
71343;SDS011;59146;43.850;25.948;2024-02-26T13:13:19;22.60;;;10.32;;
71343;SDS011;59146;43.850;25.948;2024-02-26T13:15:45;24.15;;;10.52;;
71343;SDS011;59146;43.850;25.948;2024-02-26T13:18:11;22.17;;;10.43;;
71343;SDS011;59146;43.850;25.948;2024-02-26T13:20:38;18.35;;;10.73;;
71343;SDS011;59146;43.850;25.948;2024-02-26T13:23:07;14.20;;;10.13;;
71343;SDS011;59146;43.850;25.948;2024-02-26T13:25:35;18.05;;;10.32;;
71343;SDS011;59146;43.850;25.948;2024-02-26T13:30:52;17.50;;;10.77;;
71343;SDS011;59146;43.850;25.948;2024-02-26T13:33:18;19.65;;;10.00;;
71343;SDS011;59146;43.850;25.948;2024-02-26T13:35:44;17.90;;;10.40;;
71343;SDS011;59146;43.850;25.948;2024-02-26T13:38:10;21.45;;;10.30;;
71343;SDS011;59146;43.850;25.948;2024-02-26T13:40:37;24.38;;;10.65;;
71343;SDS011;59146;43.850;25.948;2024-02-26T13:43:04;19.58;;;11.57;;
71343;SDS011;59146;43.850;25.948;2024-02-26T13:45:29;18.65;;;11.05;;
71343;SDS011;59146;43.850;25.948;2024-02-26T13:48:01;19.50;;;9.82;;
71343;SDS011;59146;43.850;25.948;2024-02-26T13:50:28;24.80;;;11.35;;
71343;SDS011;59146;43.850;25.948;2024-02-26T13:52:54;17.88;;;10.48;;
71343;SDS011;59146;43.850;25.948;2024-02-26T13:55:30;16.27;;;10.18;;
71343;SDS011;59146;43.850;25.948;2024-02-26T13:57:59;18.48;;;9.25;;
71343;SDS011;59146;43.850;25.948;2024-02-26T14:00:29;19.63;;;9.65;;
71343;SDS011;59146;43.850;25.948;2024-02-26T14:02:59;20.88;;;10.02;;
71343;SDS011;59146;43.850;25.948;2024-02-26T14:05:25;13.07;;;8.63;;
71343;SDS011;59146;43.850;25.948;2024-02-26T14:07:52;18.35;;;9.25;;
71343;SDS011;59146;43.850;25.948;2024-02-26T14:10:19;15.98;;;9.07;;
71343;SDS011;59146;43.850;25.948;2024-02-26T14:13:02;19.55;;;9.20;;
71343;SDS011;59146;43.850;25.948;2024-02-26T14:15:28;18.13;;;9.57;;